Nora, Virginia
Current Conditions -  °F | °C
As of 8:35 PM on Monday 20 Oct 2014 (Local Time) from KLNP Reporting Station
Overcast Overcast  
Wind Chill: 54°   Ceiling: 7500
Heat Index: 54°   Visibility: 10mi
Dew Point: 45°   Wind: 13mph
Humidity: 72%   Direction: 230°SW
Pressure: 30"   Gusts: 18mph
Location:  37.07°N, 82.35°W
Report Text: KLNP 210035Z AUTO 23011G16KT 10SM OVC075 12/07 A3000 RMK AO2 LTG DSNT N
Loading
Personal Weather Stations






























Interactive Weather Map
Tropical Storm Tracking
New forecast layout! Learn more

10-Day Weather Forecast

Advertisements
Track Severe Weather on mobile